createdAt,value
2023-04-29T00:00:33.170Z,997.2
2023-04-29T00:01:49.466Z,997.2
2023-04-29T00:03:05.764Z,997.2
2023-04-29T00:04:22.087Z,997.2
2023-04-29T00:05:38.388Z,997.1
2023-04-29T00:06:54.679Z,997.2
2023-04-29T00:08:09.948Z,997.2
2023-04-29T00:09:26.251Z,997.2
2023-04-29T00:10:42.540Z,997.2
2023-04-29T00:11:58.843Z,997.3
2023-04-29T00:13:15.159Z,997.2
2023-04-29T00:14:31.457Z,997.3
2023-04-29T00:15:47.724Z,997.3
2023-04-29T00:17:04.008Z,997.3
2023-04-29T00:18:20.309Z,997.3
2023-04-29T00:19:36.606Z,997.3
2023-04-29T00:20:52.885Z,997.2
2023-04-29T00:22:09.183Z,997.2
2023-04-29T00:23:25.505Z,997.2
2023-04-29T00:24:40.778Z,997.2
2023-04-29T00:25:57.077Z,997.3
2023-04-29T00:27:13.372Z,997.2
2023-04-29T00:28:29.670Z,997.2
2023-04-29T00:29:45.953Z,997.2
2023-04-29T00:31:02.250Z,997.1
2023-04-29T00:32:18.577Z,997.1
2023-04-29T00:33:34.848Z,997.1
2023-04-29T00:34:51.130Z,997.1
2023-04-29T00:36:07.430Z,997.1
2023-04-29T00:37:23.726Z,997.1
2023-04-29T00:38:40.019Z,997.1
2023-04-29T00:39:56.333Z,997.1
2023-04-29T00:41:12.611Z,997.1
2023-04-29T00:42:27.935Z,997.2
2023-04-29T00:43:44.194Z,997.2
2023-04-29T00:45:00.497Z,997.2
2023-04-29T00:46:16.818Z,997.2
2023-04-29T00:47:33.108Z,997.2
2023-04-29T00:48:49.379Z,997.2
2023-04-29T00:50:05.667Z,997.2
2023-04-29T00:51:21.971Z,997.2
2023-04-29T00:52:38.247Z,997.2
2023-04-29T00:53:54.541Z,997.2
2023-04-29T00:55:10.845Z,997.2
2023-04-29T00:56:27.140Z,997.2
2023-04-29T00:57:43.428Z,997.2
2023-04-29T00:58:58.733Z,997.2
2023-04-29T01:00:15.059Z,997.2
2023-04-29T01:01:31.333Z,997.3
2023-04-29T01:02:47.616Z,997.2
2023-04-29T01:04:03.907Z,997.2
2023-04-29T01:05:19.260Z,997.2
2023-04-29T01:06:35.548Z,997.2
2023-04-29T01:07:51.814Z,997.2
2023-04-29T01:09:08.140Z,997.2
2023-04-29T01:10:24.402Z,997.2
2023-04-29T01:11:40.697Z,997.2
2023-04-29T01:12:56.982Z,997.2
2023-04-29T01:14:13.282Z,997.2
2023-04-29T01:15:29.602Z,997.2
2023-04-29T01:16:45.872Z,997.2
2023-04-29T01:18:02.172Z,997.2
2023-04-29T01:19:18.447Z,997.2
2023-04-29T01:20:34.777Z,997.2
2023-04-29T01:21:50.071Z,997.2
2023-04-29T01:23:06.382Z,997.2
2023-04-29T01:24:22.637Z,997.2
2023-04-29T01:25:38.978Z,997.2
2023-04-29T01:26:55.227Z,997.2
2023-04-29T01:28:11.557Z,997.1
2023-04-29T01:29:27.816Z,997.1
2023-04-29T01:30:44.148Z,997.2
2023-04-29T01:32:00.436Z,997.2
2023-04-29T01:33:16.692Z,997.3
2023-04-29T01:34:33.002Z,997.3
2023-04-29T01:35:49.282Z,997.3
2023-04-29T01:37:05.585Z,997.3
2023-04-29T01:38:20.885Z,997.3
2023-04-29T01:39:37.175Z,997.3
2023-04-29T01:40:53.471Z,997.3
2023-04-29T01:42:09.769Z,997.3
2023-04-29T01:43:26.088Z,997.3
2023-04-29T01:44:42.365Z,997.3
2023-04-29T01:45:58.676Z,997.3
2023-04-29T01:47:14.946Z,997.3
2023-04-29T01:48:31.228Z,997.4
2023-04-29T01:49:47.523Z,997.4
2023-04-29T01:51:03.853Z,997.3
2023-04-29T01:52:20.159Z,997.3
2023-04-29T01:53:36.443Z,997.4
2023-04-29T01:54:51.721Z,997.4
2023-04-29T01:56:08.022Z,997.3
2023-04-29T01:57:24.306Z,997.4
2023-04-29T01:58:40.648Z,997.4
2023-04-29T01:59:56.932Z,997.4
2023-04-29T02:01:13.231Z,997.4
2023-04-29T02:02:29.474Z,997.4
2023-04-29T02:03:45.778Z,997.4
2023-04-29T02:05:02.060Z,997.4
2023-04-29T02:06:18.371Z,997.4
2023-04-29T02:07:34.684Z,997.5
2023-04-29T02:08:50.991Z,997.5
2023-04-29T02:10:07.238Z,997.4
2023-04-29T02:11:22.549Z,997.5
2023-04-29T02:12:38.848Z,997.5
2023-04-29T02:13:55.148Z,997.5
2023-04-29T02:15:11.437Z,997.5
2023-04-29T02:16:27.718Z,997.5
2023-04-29T02:17:44.015Z,997.5
2023-04-29T02:19:00.314Z,997.6
2023-04-29T02:20:16.611Z,997.5
2023-04-29T02:21:32.915Z,997.5
2023-04-29T02:22:49.184Z,997.5
2023-04-29T02:24:05.492Z,997.5
2023-04-29T02:25:21.787Z,997.5
2023-04-29T02:26:38.077Z,997.5
2023-04-29T02:27:53.375Z,997.5
2023-04-29T02:29:09.675Z,997.5
2023-04-29T02:30:25.958Z,997.5
2023-04-29T02:31:42.261Z,997.5
2023-04-29T02:32:58.551Z,997.5
2023-04-29T02:34:14.846Z,997.5
2023-04-29T02:35:31.135Z,997.5
2023-04-29T02:36:47.433Z,997.5
2023-04-29T02:38:03.725Z,997.5
2023-04-29T02:39:20.020Z,997.5
2023-04-29T02:40:36.302Z,997.5
2023-04-29T02:41:52.610Z,997.5
2023-04-29T02:43:08.892Z,997.5
2023-04-29T02:44:24.206Z,997.5
2023-04-29T02:45:40.499Z,997.5
2023-04-29T02:46:56.799Z,997.5
2023-04-29T02:48:13.090Z,997.5
2023-04-29T02:49:29.379Z,997.5
2023-04-29T02:50:45.663Z,997.5
2023-04-29T02:52:01.966Z,997.6
2023-04-29T02:53:18.258Z,997.5
2023-04-29T02:54:34.558Z,997.5
2023-04-29T02:55:50.843Z,997.5
2023-04-29T02:57:07.132Z,997.5
2023-04-29T02:58:23.424Z,997.5
2023-04-29T02:59:39.722Z,997.5
2023-04-29T03:00:55.028Z,997.5
2023-04-29T03:02:11.325Z,997.6
2023-04-29T03:03:27.612Z,997.5
2023-04-29T03:04:43.905Z,997.6
2023-04-29T03:06:00.203Z,997.5
2023-04-29T03:07:16.496Z,997.5
2023-04-29T03:08:32.000Z,997.5
2023-04-29T03:09:49.081Z,997.5
2023-04-29T03:11:05.373Z,997.5
2023-04-29T03:12:21.687Z,997.5
2023-04-29T03:13:37.971Z,997.5
2023-04-29T03:14:54.257Z,997.5
2023-04-29T03:16:10.550Z,997.5
2023-04-29T03:17:25.868Z,997.5
2023-04-29T03:18:42.163Z,997.5
2023-04-29T03:19:58.444Z,997.5
2023-04-29T03:21:14.732Z,997.5
2023-04-29T03:22:31.034Z,997.5
2023-04-29T03:23:47.266Z,997.5
2023-04-29T03:25:03.568Z,997.5
2023-04-29T03:26:19.822Z,997.5
2023-04-29T03:27:36.067Z,997.5
2023-04-29T03:28:52.363Z,997.5
2023-04-29T03:30:08.635Z,997.5
2023-04-29T03:31:24.899Z,997.5
2023-04-29T03:32:41.129Z,997.5
2023-04-29T03:33:56.435Z,997.5
2023-04-29T03:35:12.689Z,997.4
2023-04-29T03:36:28.941Z,997.5
2023-04-29T03:37:45.169Z,997.5
2023-04-29T03:39:01.402Z,997.5
2023-04-29T03:40:17.665Z,997.5
2023-04-29T03:41:33.894Z,997.5
2023-04-29T03:42:50.136Z,997.4
2023-04-29T03:44:06.377Z,997.4
2023-04-29T03:45:22.606Z,997.5
2023-04-29T03:46:38.854Z,997.5
2023-04-29T03:47:55.100Z,997.4
2023-04-29T03:49:11.322Z,997.5
2023-04-29T03:50:26.590Z,997.5
2023-04-29T03:51:42.831Z,997.5
2023-04-29T03:52:59.065Z,997.5
2023-04-29T03:54:15.290Z,997.4
2023-04-29T03:55:31.553Z,997.4
2023-04-29T03:56:47.785Z,997.4
2023-04-29T03:58:04.010Z,997.5
2023-04-29T03:59:20.249Z,997.4
2023-04-29T04:00:36.497Z,997.4
2023-04-29T04:01:52.743Z,997.5
2023-04-29T04:03:08.969Z,997.5
2023-04-29T04:04:25.207Z,997.4
2023-04-29T04:05:41.463Z,997.5
2023-04-29T04:06:56.698Z,997.5
2023-04-29T04:08:12.955Z,997.5
2023-04-29T04:09:29.179Z,997.5
2023-04-29T04:10:45.428Z,997.6
2023-04-29T04:12:01.663Z,997.5
2023-04-29T04:13:17.905Z,997.5
2023-04-29T04:14:34.135Z,997.6
2023-04-29T04:15:50.373Z,997.6
2023-04-29T04:17:06.620Z,997.6
2023-04-29T04:18:22.853Z,997.6
2023-04-29T04:19:39.095Z,997.7
2023-04-29T04:20:55.342Z,997.7
2023-04-29T04:22:11.573Z,997.7
2023-04-29T04:23:26.833Z,997.7
2023-04-29T04:24:43.069Z,997.7
2023-04-29T04:25:59.312Z,997.7
2023-04-29T04:27:15.553Z,997.7
2023-04-29T04:28:31.000Z,997.7
2023-04-29T04:29:48.030Z,997.7
2023-04-29T04:31:04.260Z,997.7
2023-04-29T04:32:20.512Z,997.7
2023-04-29T04:33:36.753Z,997.7
2023-04-29T04:34:52.994Z,997.7
2023-04-29T04:36:09.232Z,997.7
2023-04-29T04:37:25.457Z,997.8
2023-04-29T04:38:41.702Z,997.7
2023-04-29T04:39:56.955Z,997.7
2023-04-29T04:41:13.194Z,997.7
2023-04-29T04:42:29.434Z,997.8
2023-04-29T04:43:45.669Z,997.8
2023-04-29T04:45:01.918Z,997.8
2023-04-29T04:46:18.150Z,997.8
2023-04-29T04:47:34.405Z,997.8
2023-04-29T04:48:50.641Z,997.8
2023-04-29T04:50:06.882Z,997.9
2023-04-29T04:51:23.125Z,997.8
2023-04-29T04:52:39.351Z,997.8
2023-04-29T04:53:55.586Z,997.8
2023-04-29T04:55:11.828Z,997.8
2023-04-29T04:56:27.100Z,997.8
2023-04-29T04:58:59.575Z,997.8
2023-04-29T05:00:15.808Z,997.9
2023-04-29T05:01:32.000Z,997.8
2023-04-29T05:02:48.282Z,997.9
2023-04-29T05:04:04.525Z,997.9
2023-04-29T05:05:20.766Z,997.9
2023-04-29T05:06:36.998Z,997.9
2023-04-29T05:07:53.000Z,997.9
2023-04-29T05:09:09.484Z,997.9
2023-04-29T05:10:25.731Z,997.9
2023-04-29T05:11:41.962Z,997.9
2023-04-29T05:12:57.223Z,997.9
2023-04-29T05:14:13.455Z,997.9
2023-04-29T05:15:29.699Z,997.9
2023-04-29T05:16:45.945Z,997.9
2023-04-29T05:18:02.181Z,998
2023-04-29T05:19:18.412Z,998
2023-04-29T05:20:33.691Z,998
2023-04-29T05:21:49.914Z,998
2023-04-29T05:23:06.171Z,998
2023-04-29T05:24:22.404Z,998
2023-04-29T05:25:38.632Z,998.1
2023-04-29T05:26:54.886Z,998.1
2023-04-29T05:28:11.113Z,998.1
2023-04-29T05:29:27.366Z,998.1
2023-04-29T05:30:43.595Z,998.2
2023-04-29T05:31:59.848Z,998.2
2023-04-29T05:33:16.086Z,998.2
2023-04-29T05:34:32.328Z,998.1
2023-04-29T05:35:48.551Z,998.1
2023-04-29T05:37:03.817Z,998.1
2023-04-29T05:38:20.056Z,998.1
2023-04-29T05:39:36.286Z,998.1
2023-04-29T05:40:52.525Z,998.1
2023-04-29T05:42:08.769Z,998.1
2023-04-29T05:43:25.014Z,998.1
2023-04-29T05:44:41.245Z,998.1
2023-04-29T05:45:57.494Z,998.2
2023-04-29T05:47:13.724Z,998.2
2023-04-29T05:48:29.968Z,998.3
2023-04-29T05:49:46.201Z,998.2
2023-04-29T05:51:02.454Z,998.3
2023-04-29T05:52:18.687Z,998.3
2023-04-29T05:53:33.000Z,998.3
2023-04-29T05:54:50.182Z,998.3
2023-04-29T05:56:06.418Z,998.3
2023-04-29T05:57:22.653Z,998.3
2023-04-29T05:58:38.912Z,998.3
2023-04-29T05:59:55.132Z,998.4
2023-04-29T06:01:11.385Z,998.4
2023-04-29T06:02:27.628Z,998.4
2023-04-29T06:03:43.851Z,998.4
2023-04-29T06:05:00.118Z,998.4
2023-04-29T06:06:16.335Z,998.4
2023-04-29T06:07:32.590Z,998.5
2023-04-29T06:08:48.817Z,998.5
2023-04-29T06:10:04.082Z,998.5
2023-04-29T06:11:20.312Z,998.5
2023-04-29T06:12:36.560Z,998.5
2023-04-29T06:13:52.785Z,998.6
2023-04-29T06:15:09.042Z,998.6
2023-04-29T06:16:25.261Z,998.6
2023-04-29T06:17:41.510Z,998.6
2023-04-29T06:18:57.737Z,998.7
2023-04-29T06:20:13.986Z,998.7
2023-04-29T06:21:30.226Z,998.7
2023-04-29T06:22:46.467Z,998.7
2023-04-29T06:24:02.720Z,998.7
2023-04-29T06:25:18.953Z,998.7
2023-04-29T06:26:34.199Z,998.7
2023-04-29T06:27:50.441Z,998.6
2023-04-29T06:29:06.681Z,998.6
2023-04-29T06:30:22.908Z,998.7
2023-04-29T06:31:39.142Z,998.8
2023-04-29T06:32:55.401Z,998.7
2023-04-29T06:34:11.634Z,998.8
2023-04-29T06:35:27.874Z,998.7
2023-04-29T06:36:44.113Z,998.7
2023-04-29T06:38:00.350Z,998.8
2023-04-29T06:39:16.578Z,998.8
2023-04-29T06:40:32.830Z,998.8
2023-04-29T06:41:49.068Z,998.8
2023-04-29T06:43:04.313Z,998.9
2023-04-29T06:44:20.558Z,998.9
2023-04-29T06:45:36.794Z,998.9
2023-04-29T06:46:53.042Z,998.9
2023-04-29T06:48:09.267Z,998.9
2023-04-29T06:49:25.506Z,998.9
2023-04-29T06:50:41.760Z,998.9
2023-04-29T06:51:57.999Z,998.9
2023-04-29T06:53:14.228Z,998.9
2023-04-29T06:54:30.475Z,998.9
2023-04-29T06:55:46.000Z,998.9
2023-04-29T06:57:02.954Z,998.9
2023-04-29T06:58:19.201Z,998.9
2023-04-29T06:59:34.436Z,998.9
2023-04-29T07:00:50.695Z,999
2023-04-29T07:02:06.932Z,999
2023-04-29T07:03:23.165Z,999
2023-04-29T07:04:39.415Z,999
2023-04-29T07:05:55.646Z,999
2023-04-29T07:07:11.879Z,998.9
2023-04-29T07:08:28.123Z,999
2023-04-29T07:09:44.366Z,999
2023-04-29T07:11:00.602Z,999
2023-04-29T07:12:16.000Z,999
2023-04-29T07:13:33.083Z,999
2023-04-29T07:14:49.334Z,999
2023-04-29T07:16:04.574Z,999.1
2023-04-29T07:17:20.817Z,999.1
2023-04-29T07:18:37.053Z,999.1
2023-04-29T07:19:53.279Z,999.2
2023-04-29T07:21:09.532Z,999.1
2023-04-29T07:22:25.761Z,999.2
2023-04-29T07:23:42.004Z,999.2
2023-04-29T07:24:58.260Z,999.2
2023-04-29T07:26:14.000Z,999.2
2023-04-29T07:27:30.716Z,999.2
2023-04-29T07:28:46.971Z,999.2
2023-04-29T07:30:03.209Z,999.3
2023-04-29T07:31:19.441Z,999.2
2023-04-29T07:32:34.712Z,999.2
2023-04-29T07:33:50.931Z,999.3
2023-04-29T07:35:07.178Z,999.3
2023-04-29T07:36:23.409Z,999.3
2023-04-29T07:37:39.659Z,999.3
2023-04-29T07:38:55.902Z,999.3
2023-04-29T07:40:12.129Z,999.3
2023-04-29T07:41:28.365Z,999.3
2023-04-29T07:42:44.616Z,999.4
2023-04-29T07:44:00.843Z,999.4
2023-04-29T07:45:17.090Z,999.3
2023-04-29T07:46:33.314Z,999.4
2023-04-29T07:47:49.553Z,999.3
2023-04-29T07:49:04.807Z,999.4
2023-04-29T07:50:21.065Z,999.4
2023-04-29T07:51:37.305Z,999.4
2023-04-29T07:52:53.555Z,999.4
2023-04-29T07:54:09.762Z,999.4
2023-04-29T07:55:26.013Z,999.5
2023-04-29T07:56:42.248Z,999.4
2023-04-29T07:57:58.484Z,999.5
2023-04-29T07:59:14.739Z,999.5
2023-04-29T08:00:30.958Z,999.5
2023-04-29T08:01:47.221Z,999.5
2023-04-29T08:03:03.453Z,999.6
2023-04-29T08:04:19.688Z,999.5
2023-04-29T08:05:34.934Z,999.6
2023-04-29T08:06:51.194Z,999.6
2023-04-29T08:08:07.411Z,999.6
2023-04-29T08:09:23.658Z,999.6
2023-04-29T08:10:39.904Z,999.7
2023-04-29T08:11:56.124Z,999.7
2023-04-29T08:13:12.384Z,999.7
2023-04-29T08:14:28.619Z,999.8
2023-04-29T08:15:44.862Z,999.7
2023-04-29T08:17:01.100Z,999.7
2023-04-29T08:18:17.333Z,999.8
2023-04-29T08:19:33.582Z,999.8
2023-04-29T08:20:49.812Z,999.9
2023-04-29T08:22:06.053Z,999.8
2023-04-29T08:23:21.294Z,999.8
2023-04-29T08:24:37.550Z,999.9
2023-04-29T08:25:53.772Z,999.9
2023-04-29T08:27:10.000Z,1000
2023-04-29T08:28:26.265Z,1000
2023-04-29T08:29:42.495Z,1000
2023-04-29T08:30:58.743Z,1000
2023-04-29T08:32:14.977Z,1000.1
2023-04-29T08:33:31.223Z,1000.1
2023-04-29T08:34:47.447Z,1000.1
2023-04-29T08:36:03.700Z,1000.1
2023-04-29T08:37:19.935Z,1000.2
2023-04-29T08:38:36.179Z,1000.2
2023-04-29T08:39:51.434Z,1000.2
2023-04-29T08:41:07.662Z,1000.2
2023-04-29T08:42:23.906Z,1000.2
2023-04-29T08:43:40.147Z,1000.2
2023-04-29T08:44:56.388Z,1000.3
2023-04-29T08:46:12.635Z,1000.3
2023-04-29T08:47:28.850Z,1000.2
2023-04-29T08:48:45.087Z,1000.3
2023-04-29T08:50:01.354Z,1000.4
2023-04-29T08:51:17.570Z,1000.3
2023-04-29T08:52:33.804Z,1000.3
2023-04-29T08:53:50.061Z,1000.3
2023-04-29T08:55:06.302Z,1000.3
2023-04-29T08:56:21.557Z,1000.3
2023-04-29T08:57:37.788Z,1000.4
2023-04-29T08:58:54.029Z,1000.4
2023-04-29T09:00:10.270Z,1000.4
2023-04-29T09:01:26.512Z,1000.3
2023-04-29T09:02:42.739Z,1000.4
2023-04-29T09:03:58.978Z,1000.4
2023-04-29T09:05:15.213Z,1000.5
2023-04-29T09:06:31.475Z,1000.4
2023-04-29T09:07:47.695Z,1000.4
2023-04-29T09:09:03.955Z,1000.4
2023-04-29T09:10:20.171Z,1000.5
2023-04-29T09:11:36.419Z,1000.5
2023-04-29T09:12:51.658Z,1000.6
2023-04-29T09:14:07.914Z,1000.6
2023-04-29T09:15:24.147Z,1000.6
2023-04-29T09:16:40.378Z,1000.6
2023-04-29T09:17:56.631Z,1000.6
2023-04-29T09:19:12.869Z,1000.5
2023-04-29T09:20:29.116Z,1000.7
2023-04-29T09:21:45.361Z,1000.7
2023-04-29T09:23:01.578Z,1000.7
2023-04-29T09:24:17.000Z,1000.6
2023-04-29T09:25:34.062Z,1000.7
2023-04-29T09:26:50.292Z,1000.7
2023-04-29T09:28:06.526Z,1000.6
2023-04-29T09:29:21.792Z,1000.7
2023-04-29T09:30:38.041Z,1000.7
2023-04-29T09:31:54.278Z,1000.8
2023-04-29T09:33:10.498Z,1000.7
2023-04-29T09:34:26.763Z,1000.7
2023-04-29T09:35:41.999Z,1000.8
2023-04-29T09:36:58.244Z,1000.8
2023-04-29T09:38:14.472Z,1000.7
2023-04-29T09:39:30.717Z,1000.7
2023-04-29T09:40:46.956Z,1000.8
2023-04-29T09:42:03.200Z,1000.9
2023-04-29T09:43:19.440Z,1000.9
2023-04-29T09:44:35.680Z,1001
2023-04-29T09:45:51.930Z,1001.1
2023-04-29T09:47:08.151Z,1001.1
2023-04-29T09:48:24.392Z,1001.1
2023-04-29T09:49:40.644Z,1001.1
2023-04-29T09:50:56.890Z,1001.1
2023-04-29T09:52:12.118Z,1001.1
2023-04-29T09:53:28.378Z,1001.2
2023-04-29T09:54:44.595Z,1001.1
2023-04-29T09:56:00.849Z,1001.1
2023-04-29T09:57:17.081Z,1001.2
2023-04-29T09:58:33.330Z,1001.2
2023-04-29T09:59:49.558Z,1001.2
2023-04-29T10:01:05.799Z,1001.2
2023-04-29T10:02:22.042Z,1001.1
2023-04-29T10:03:38.292Z,1001.2
2023-04-29T10:04:54.517Z,1001.2
2023-04-29T10:06:10.757Z,1001.3
2023-04-29T10:07:26.990Z,1001.3
2023-04-29T10:08:42.241Z,1001.4
2023-04-29T10:09:58.488Z,1001.3
2023-04-29T10:11:14.723Z,1001.3
2023-04-29T10:12:30.959Z,1001.3
2023-04-29T10:13:47.207Z,1001.3
2023-04-29T10:15:03.432Z,1001.3
2023-04-29T10:16:19.673Z,1001.4
2023-04-29T10:17:35.925Z,1001.4
2023-04-29T10:18:52.147Z,1001.4
2023-04-29T10:20:08.393Z,1001.4
2023-04-29T10:21:24.627Z,1001.5
2023-04-29T10:22:40.880Z,1001.5
2023-04-29T10:23:57.104Z,1001.4
2023-04-29T10:25:12.358Z,1001.5
2023-04-29T10:26:28.605Z,1001.5
2023-04-29T10:27:44.858Z,1001.5
2023-04-29T10:29:01.099Z,1001.5
2023-04-29T10:30:17.333Z,1001.6
2023-04-29T10:31:33.574Z,1001.6
2023-04-29T10:32:49.795Z,1001.6
2023-04-29T10:34:06.032Z,1001.6
2023-04-29T10:35:22.285Z,1001.6
2023-04-29T10:36:38.514Z,1001.6
2023-04-29T10:37:54.768Z,1001.6
2023-04-29T10:39:11.004Z,1001.7
2023-04-29T10:40:27.252Z,1001.7
2023-04-29T10:41:42.486Z,1001.6
2023-04-29T10:42:58.738Z,1001.6
2023-04-29T10:44:14.976Z,1001.7
2023-04-29T10:45:31.224Z,1001.7
2023-04-29T10:46:47.442Z,1001.7
2023-04-29T10:48:03.709Z,1001.7
2023-04-29T10:49:19.916Z,1001.8
2023-04-29T10:50:36.167Z,1001.8
2023-04-29T10:51:52.410Z,1001.7
2023-04-29T10:53:08.648Z,1001.7
2023-04-29T10:54:24.878Z,1001.8
2023-04-29T10:55:41.118Z,1001.8
2023-04-29T10:56:57.364Z,1001.8
2023-04-29T10:58:12.603Z,1001.8
2023-04-29T10:59:28.852Z,1001.7
2023-04-29T11:00:45.092Z,1001.8
2023-04-29T11:02:01.329Z,1001.8
2023-04-29T11:03:17.584Z,1001.9
2023-04-29T11:04:33.827Z,1001.9
2023-04-29T11:05:50.048Z,1001.9
2023-04-29T11:07:06.302Z,1001.8
2023-04-29T11:08:22.539Z,1001.9
2023-04-29T11:09:38.768Z,1001.8
2023-04-29T11:10:55.018Z,1001.9
2023-04-29T11:12:11.244Z,1001.9
2023-04-29T11:13:27.487Z,1001.9
2023-04-29T11:14:42.749Z,1002
2023-04-29T11:15:58.982Z,1001.9
2023-04-29T11:17:15.220Z,1002
2023-04-29T11:18:31.468Z,1002
2023-04-29T11:19:47.698Z,1002
2023-04-29T11:21:03.938Z,1002
2023-04-29T11:22:20.187Z,1002.1
2023-04-29T11:23:36.415Z,1002.1
2023-04-29T11:24:52.658Z,1002.1
2023-04-29T11:26:08.900Z,1002.1
2023-04-29T11:27:25.146Z,1002.2
2023-04-29T11:28:41.382Z,1002.2
2023-04-29T11:29:57.622Z,1002.3
2023-04-29T11:31:12.873Z,1002.2
2023-04-29T11:32:29.111Z,1002.2
2023-04-29T11:33:45.363Z,1002.3
2023-04-29T11:35:01.594Z,1002.2
2023-04-29T11:36:17.839Z,1002.2
2023-04-29T11:37:34.078Z,1002.3
2023-04-29T11:38:50.303Z,1002.3
2023-04-29T11:40:06.550Z,1002.2
2023-04-29T11:41:22.777Z,1002.2
2023-04-29T11:42:39.018Z,1002.3
2023-04-29T11:43:55.269Z,1002.3
2023-04-29T11:45:11.505Z,1002.5
2023-04-29T11:46:27.746Z,1002.4
2023-04-29T11:47:43.016Z,1002.4
2023-04-29T11:48:59.248Z,1002.4
2023-04-29T11:50:15.469Z,1002.5
2023-04-29T11:51:31.717Z,1002.6
2023-04-29T11:52:47.953Z,1002.5
2023-04-29T11:54:04.185Z,1002.5
2023-04-29T11:55:20.440Z,1002.6
2023-04-29T11:56:36.664Z,1002.8
2023-04-29T11:57:52.923Z,1002.6
2023-04-29T11:59:09.142Z,1002.7
2023-04-29T12:00:25.385Z,1002.7
2023-04-29T12:01:41.622Z,1002.7
2023-04-29T12:02:57.879Z,1002.6
2023-04-29T12:04:13.121Z,1002.7
2023-04-29T12:05:29.366Z,1002.7
2023-04-29T12:06:45.601Z,1002.7
2023-04-29T12:08:01.849Z,1002.7
2023-04-29T12:09:18.081Z,1002.7
2023-04-29T12:10:34.319Z,1002.7
2023-04-29T12:11:50.561Z,1002.8
2023-04-29T12:13:06.802Z,1002.7
2023-04-29T12:14:23.044Z,1002.7
2023-04-29T12:15:39.276Z,1002.9
2023-04-29T12:16:55.516Z,1002.9
2023-04-29T12:18:11.749Z,1002.8
2023-04-29T12:19:27.991Z,1002.8
2023-04-29T12:20:43.268Z,1002.9
2023-04-29T12:21:59.496Z,1002.8
2023-04-29T12:23:15.727Z,1002.8
2023-04-29T12:24:31.970Z,1002.8
2023-04-29T12:25:48.218Z,1002.8
2023-04-29T12:27:04.438Z,1002.8
2023-04-29T12:28:20.684Z,1002.8
2023-04-29T12:29:36.926Z,1002.8
2023-04-29T12:30:53.174Z,1002.8
2023-04-29T12:32:09.399Z,1002.8
2023-04-29T12:33:25.640Z,1002.9
2023-04-29T12:34:41.884Z,1002.9
2023-04-29T12:35:58.128Z,1002.9
2023-04-29T12:37:13.380Z,1002.9
2023-04-29T12:38:29.620Z,1002.8
2023-04-29T12:39:45.854Z,1002.8
2023-04-29T12:41:02.095Z,1002.8
2023-04-29T12:42:18.323Z,1002.8
2023-04-29T12:43:34.579Z,1002.9
2023-04-29T12:44:50.809Z,1002.8
2023-04-29T12:46:07.047Z,1002.9
2023-04-29T12:47:23.277Z,1002.9
2023-04-29T12:48:39.519Z,1002.9
2023-04-29T12:49:55.754Z,1002.9
2023-04-29T12:51:12.009Z,1002.9
2023-04-29T12:52:28.230Z,1002.9
2023-04-29T12:53:43.490Z,1002.9
2023-04-29T12:54:59.725Z,1002.9
2023-04-29T12:56:15.967Z,1003
2023-04-29T12:57:32.214Z,1002.9
2023-04-29T12:58:48.449Z,1002.9
2023-04-29T13:00:04.688Z,1002.9
2023-04-29T13:01:20.918Z,1002.8
2023-04-29T13:02:37.177Z,1002.9
2023-04-29T13:03:53.402Z,1002.8
2023-04-29T13:05:09.652Z,1002.9
2023-04-29T13:06:25.881Z,1002.8
2023-04-29T13:07:42.118Z,1002.9
2023-04-29T13:08:58.360Z,1002.9
2023-04-29T13:10:13.607Z,1002.9
2023-04-29T13:11:29.858Z,1002.9
2023-04-29T13:12:46.097Z,1002.9
2023-04-29T13:14:02.336Z,1003
2023-04-29T13:15:18.567Z,1003
2023-04-29T13:16:34.812Z,1002.8
2023-04-29T13:17:51.042Z,1002.9
2023-04-29T13:19:07.284Z,1002.9
2023-04-29T13:20:23.528Z,1002.9
2023-04-29T13:21:39.786Z,1002.9
2023-04-29T13:22:55.999Z,1002.9
2023-04-29T13:24:12.237Z,1002.9
2023-04-29T13:25:28.486Z,1002.9
2023-04-29T13:26:43.734Z,1002.9
2023-04-29T13:27:59.970Z,1002.9
2023-04-29T13:29:16.209Z,1002.9
2023-04-29T13:30:32.445Z,1003
2023-04-29T13:31:48.703Z,1002.9
2023-04-29T13:33:04.927Z,1002.9
2023-04-29T13:34:21.176Z,1003
2023-04-29T13:35:37.404Z,1003
2023-04-29T13:36:53.645Z,1003
2023-04-29T13:38:09.887Z,1003
2023-04-29T13:39:26.131Z,1003
2023-04-29T13:40:42.354Z,1003
2023-04-29T13:41:58.601Z,1003
2023-04-29T13:43:13.849Z,1003
2023-04-29T13:44:30.092Z,1003
2023-04-29T13:45:46.328Z,1003
2023-04-29T13:47:02.576Z,1003
2023-04-29T13:48:18.808Z,1003
2023-04-29T13:49:35.045Z,1003
2023-04-29T13:50:50.306Z,1003
2023-04-29T13:52:06.555Z,1003.1
2023-04-29T13:53:22.797Z,1003
2023-04-29T13:54:39.024Z,1003.1
2023-04-29T13:55:55.288Z,1003.1
2023-04-29T13:57:11.496Z,1003.1
2023-04-29T13:58:27.740Z,1003.1
2023-04-29T13:59:43.989Z,1003.1
2023-04-29T14:01:00.229Z,1003
2023-04-29T14:02:16.470Z,1003.1
2023-04-29T14:03:32.707Z,1003.1
2023-04-29T14:04:48.946Z,1003
2023-04-29T14:06:05.175Z,1003.1
2023-04-29T14:07:20.425Z,1003
2023-04-29T14:08:36.680Z,1003.1
2023-04-29T14:09:52.931Z,1003.1
2023-04-29T14:11:09.167Z,1003.1
2023-04-29T14:12:25.381Z,1003.1
2023-04-29T14:13:41.629Z,1003.1
2023-04-29T14:14:57.861Z,1003.2
2023-04-29T14:16:14.116Z,1003.2
2023-04-29T14:17:30.353Z,1003.2
2023-04-29T14:18:46.586Z,1003.2
2023-04-29T14:20:02.819Z,1003.2
2023-04-29T14:21:19.057Z,1003.2
2023-04-29T14:22:35.302Z,1003.3
2023-04-29T14:23:50.551Z,1003.3
2023-04-29T14:25:06.788Z,1003.2
2023-04-29T14:26:23.044Z,1003.3
2023-04-29T14:27:39.266Z,1003.3
2023-04-29T14:28:55.523Z,1003.3
2023-04-29T14:30:11.761Z,1003.3
2023-04-29T14:31:27.998Z,1003.3
2023-04-29T14:32:44.243Z,1003.3
2023-04-29T14:34:00.477Z,1003.3
2023-04-29T14:35:16.726Z,1003.4
2023-04-29T14:36:32.946Z,1003.4
2023-04-29T14:37:49.187Z,1003.4
2023-04-29T14:39:05.436Z,1003.4
2023-04-29T14:40:20.684Z,1003.4
2023-04-29T14:41:36.918Z,1003.4
2023-04-29T14:42:53.180Z,1003.5
2023-04-29T14:44:09.391Z,1003.5
2023-04-29T14:45:25.641Z,1003.5
2023-04-29T14:46:41.869Z,1003.5
2023-04-29T14:47:58.121Z,1003.5
2023-04-29T14:49:14.337Z,1003.5
2023-04-29T14:50:30.582Z,1003.5
2023-04-29T14:51:46.827Z,1003.4
2023-04-29T14:53:03.069Z,1003.5
2023-04-29T14:54:19.297Z,1003.5
2023-04-29T14:55:35.543Z,1003.5
2023-04-29T14:56:50.816Z,1003.5
2023-04-29T14:58:07.042Z,1003.5
2023-04-29T14:59:23.272Z,1003.5
2023-04-29T15:00:39.507Z,1003.5
2023-04-29T15:01:55.751Z,1003.6
2023-04-29T15:03:12.015Z,1003.5
2023-04-29T15:04:28.243Z,1003.5
2023-04-29T15:05:44.479Z,1003.6
2023-04-29T15:07:00.725Z,1003.6
2023-04-29T15:08:16.938Z,1003.6
2023-04-29T15:09:33.180Z,1003.6
2023-04-29T15:10:49.423Z,1003.6
2023-04-29T15:12:05.663Z,1003.6
2023-04-29T15:13:20.922Z,1003.6
2023-04-29T15:14:37.167Z,1003.6
2023-04-29T15:15:53.400Z,1003.6
2023-04-29T15:17:09.641Z,1003.6
2023-04-29T15:18:25.878Z,1003.6
2023-04-29T15:19:42.124Z,1003.7
2023-04-29T15:20:58.350Z,1003.7
2023-04-29T15:22:14.582Z,1003.6
2023-04-29T15:23:30.830Z,1003.6
2023-04-29T15:24:47.057Z,1003.6
2023-04-29T15:26:03.300Z,1003.7
2023-04-29T15:27:19.533Z,1003.7
2023-04-29T15:28:35.000Z,1003.7
2023-04-29T15:29:51.036Z,1003.7
2023-04-29T15:31:07.291Z,1003.7
2023-04-29T15:32:23.518Z,1003.8
2023-04-29T15:33:39.772Z,1003.8
2023-04-29T15:34:55.983Z,1003.8
2023-04-29T15:36:12.228Z,1003.8
2023-04-29T15:37:28.476Z,1003.8
2023-04-29T15:38:44.703Z,1003.8
2023-04-29T15:40:00.963Z,1003.8
2023-04-29T15:41:17.183Z,1003.8
2023-04-29T15:42:33.415Z,1003.8
2023-04-29T15:43:49.669Z,1003.9
2023-04-29T15:45:05.913Z,1003.9
2023-04-29T15:46:21.161Z,1003.9
2023-04-29T15:47:37.391Z,1003.9
2023-04-29T15:48:53.639Z,1003.9
2023-04-29T15:50:09.874Z,1003.9
2023-04-29T15:51:26.106Z,1003.9
2023-04-29T15:52:42.344Z,1003.9
2023-04-29T15:53:58.606Z,1003.9
2023-04-29T15:55:14.831Z,1003.9
2023-04-29T15:56:31.090Z,1004
2023-04-29T15:57:47.319Z,1004
2023-04-29T15:59:03.556Z,1004
2023-04-29T16:00:19.796Z,1004
2023-04-29T16:01:36.020Z,1004
2023-04-29T16:02:51.277Z,1004.1
2023-04-29T16:04:07.519Z,1004
2023-04-29T16:05:23.784Z,1004.1
2023-04-29T16:06:39.999Z,1004.1
2023-04-29T16:07:56.231Z,1004.1
2023-04-29T16:09:12.474Z,1004
2023-04-29T16:10:28.715Z,1004
2023-04-29T16:11:44.954Z,1004